Terminal Aerodrome Forecast
Issued by NWS

Home | Current Version | Previous Version | Text Only | Print | Product List | Glossary On
Versions: 1 2 3 4 5 6 7 8 9 10 11 12 13 14 15 16 17 18 19 20 21 22
548
FTUS41 KBGM 170859 AAB
TAFELM
TAF AMD
KELM 170859Z 1709/1806 VRB02KT P6SM FEW004 SCT060
      TEMPO 1709/1713 1SM BR OVC004
     FM171300 16005KT P6SM SCT100
     FM180400 16006KT P6SM -SHRA OVC045=

USA.gov is the U.S. government's official web portal to all federal, state and local government web resources and services.